createdAt,value
2023-04-10T00:02:29.035Z,18.25
2023-04-10T00:07:32.246Z,17.60
2023-04-10T00:12:36.665Z,17.20
2023-04-10T00:17:40.930Z,19.50
2023-04-10T00:22:43.761Z,17.75
2023-04-10T00:27:46.471Z,19.00
2023-04-10T00:32:50.697Z,18.00
2023-04-10T00:37:54.594Z,18.00
2023-04-10T00:42:57.455Z,18.00
2023-04-10T00:48:01.600Z,17.20
2023-04-10T00:53:05.785Z,19.75
2023-04-10T00:58:08.556Z,18.25
2023-04-10T01:03:12.838Z,17.00
2023-04-10T01:08:21.581Z,16.50
2023-04-10T01:13:26.689Z,16.25
2023-04-10T01:18:34.301Z,18.25
2023-04-10T01:23:48.805Z,14.75
2023-04-10T01:28:54.524Z,17.00
2023-04-10T01:33:59.525Z,16.25
2023-04-10T01:39:02.332Z,15.60
2023-04-10T01:44:06.651Z,18.00
2023-04-10T01:49:09.442Z,15.40
2023-04-10T01:54:12.377Z,15.80
2023-04-10T01:59:16.764Z,15.80
2023-04-10T02:04:19.645Z,16.40
2023-04-10T02:09:24.921Z,14.80
2023-04-10T02:14:29.443Z,17.00
2023-04-10T02:19:32.470Z,14.75
2023-04-10T02:24:35.236Z,17.00
2023-04-10T02:29:39.536Z,14.00
2023-04-10T02:34:43.770Z,17.40
2023-04-10T02:39:46.565Z,14.80
2023-04-10T02:44:51.411Z,14.00
2023-04-10T02:49:54.410Z,14.20
2023-04-10T02:54:57.287Z,13.80
2023-04-10T03:00:05.288Z,14.00
2023-04-10T03:05:28.862Z,15.60
2023-04-10T03:10:31.756Z,14.40
2023-04-10T03:15:35.925Z,14.00
2023-04-10T03:20:39.452Z,14.00
2023-04-10T03:25:42.311Z,13.60
2023-04-10T03:30:47.194Z,14.40
2023-04-10T03:35:50.135Z,13.20
2023-04-10T03:40:54.024Z,13.00
2023-04-10T03:46:01.657Z,12.60
2023-04-10T03:51:05.113Z,12.40
2023-04-10T03:56:09.307Z,13.40
2023-04-10T04:01:14.033Z,14.60
2023-04-10T04:06:32.217Z,12.20
2023-04-10T04:11:44.297Z,13.00
2023-04-10T04:17:11.248Z,12.20
2023-04-10T04:22:52.181Z,13.20
2023-04-10T04:28:06.961Z,11.80
2023-04-10T04:33:24.144Z,13.00
2023-04-10T04:38:45.544Z,11.80
2023-04-10T04:44:14.210Z,11.20
2023-04-10T04:49:36.923Z,12.80
2023-04-10T04:54:58.670Z,12.00
2023-04-10T05:00:29.970Z,10.80
2023-04-10T05:06:09.459Z,11.40
2023-04-10T05:11:23.691Z,12.00
2023-04-10T05:16:52.414Z,13.20
2023-04-10T05:22:18.536Z,11.80
2023-04-10T05:27:29.604Z,12.00
2023-04-10T05:32:58.550Z,13.00
2023-04-10T05:38:20.714Z,10.20
2023-04-10T05:43:39.685Z,11.80
2023-04-10T05:48:57.653Z,10.80
2023-04-10T05:54:20.344Z,12.00
2023-04-10T05:59:43.458Z,10.00
2023-04-10T06:05:22.085Z,12.00
2023-04-10T06:10:31.021Z,11.80
2023-04-10T06:15:33.900Z,10.00
2023-04-10T06:20:37.043Z,10.00
2023-04-10T06:25:41.724Z,9.80
2023-04-10T06:30:44.587Z,12.00
2023-04-10T06:35:47.733Z,10.80
2023-04-10T06:40:52.299Z,9.60
2023-04-10T06:45:55.039Z,9.00
2023-04-10T06:51:00.424Z,11.80
2023-04-10T06:56:04.994Z,9.80
2023-04-10T07:01:08.015Z,9.80
2023-04-10T07:06:11.316Z,27.00
2023-04-10T07:11:15.563Z,26.00
2023-04-10T07:16:18.545Z,24.25
2023-04-10T07:21:21.360Z,24.50
2023-04-10T07:26:25.484Z,21.25
2023-04-10T07:31:28.375Z,24.50
2023-04-10T07:36:31.868Z,20.25
2023-04-10T07:41:36.256Z,19.25
2023-04-10T07:46:39.253Z,21.25
2023-04-10T07:51:42.038Z,18.00
2023-04-10T07:56:46.170Z,22.00
2023-04-10T08:01:49.090Z,19.00
2023-04-10T08:06:51.904Z,20.75
2023-04-10T08:11:56.007Z,18.00
2023-04-10T08:16:58.794Z,19.00
2023-04-10T08:22:01.584Z,17.50
2023-04-10T08:27:05.763Z,18.00
2023-04-10T08:32:08.557Z,19.00
2023-04-10T08:37:12.302Z,17.75
2023-04-10T08:42:16.450Z,18.60
2023-04-10T08:47:19.611Z,19.50
2023-04-10T08:52:23.721Z,18.20
2023-04-10T08:57:28.016Z,19.75
2023-04-10T09:02:31.060Z,17.20
2023-04-10T09:07:34.100Z,16.20
2023-04-10T09:12:47.441Z,18.80
2023-04-10T09:17:57.571Z,19.60
2023-04-10T09:23:00.600Z,17.75
2023-04-10T09:28:06.790Z,17.00
2023-04-10T09:33:27.460Z,16.00
2023-04-10T09:38:30.400Z,17.40
2023-04-10T09:43:34.576Z,37.00
2023-04-10T09:48:37.556Z,41.00
2023-04-10T09:53:49.470Z,50.50
2023-04-10T09:58:54.006Z,48.00
2023-04-10T10:03:57.174Z,51.00
2023-04-10T10:09:02.860Z,47.50
2023-04-10T10:14:09.271Z,47.00
2023-04-10T10:19:14.384Z,47.00
2023-04-10T10:24:17.387Z,47.00
2023-04-10T10:29:21.685Z,45.25
2023-04-10T10:34:24.689Z,45.00
2023-04-10T10:39:31.921Z,43.00
2023-04-10T10:44:39.923Z,41.25
2023-04-10T10:49:56.363Z,39.75
2023-04-10T10:54:59.779Z,38.00
2023-04-10T11:00:04.343Z,37.00
2023-04-10T11:05:07.801Z,33.00
2023-04-10T11:10:10.758Z,31.00
2023-04-10T11:15:14.891Z,30.00
2023-04-10T11:20:17.807Z,32.67
2023-04-10T11:25:20.549Z,30.00
2023-04-10T11:30:34.218Z,23.00
2023-04-10T11:35:37.027Z,20.00
2023-04-10T11:40:55.393Z,17.75
2023-04-10T11:46:04.144Z,19.25
2023-04-10T11:51:11.391Z,19.75
2023-04-10T11:56:21.112Z,21.75
2023-04-10T12:01:25.454Z,18.00
2023-04-10T12:06:28.638Z,15.40
2023-04-10T12:11:31.644Z,15.00
2023-04-10T12:16:36.053Z,15.60
2023-04-10T12:21:38.927Z,19.75
2023-04-10T12:26:48.499Z,20.00
2023-04-10T12:31:52.676Z,19.25
2023-04-10T12:36:55.725Z,18.25
2023-04-10T12:42:12.094Z,20.00
2023-04-10T12:47:16.216Z,18.25
2023-04-10T12:52:23.601Z,20.25
2023-04-10T12:57:27.280Z,20.75
2023-04-10T13:02:31.653Z,19.00
2023-04-10T13:07:34.620Z,18.75
2023-04-10T13:12:38.772Z,16.50
2023-04-10T13:17:42.912Z,17.20
2023-04-10T13:22:45.782Z,18.75
2023-04-10T13:27:48.539Z,17.00
2023-04-10T13:32:52.719Z,16.80
2023-04-10T13:37:55.772Z,17.00
2023-04-10T13:42:58.543Z,17.00
2023-04-10T13:48:02.704Z,18.75
2023-04-10T13:53:07.354Z,17.00
2023-04-10T13:58:10.178Z,17.00
2023-04-10T14:03:14.461Z,18.00
2023-04-10T14:08:17.365Z,16.20
2023-04-10T14:13:20.196Z,16.60
2023-04-10T14:18:24.371Z,16.80
2023-04-10T14:23:27.139Z,15.00
2023-04-10T14:28:29.870Z,14.60
2023-04-10T14:33:35.025Z,15.60
2023-04-10T14:38:37.973Z,13.40
2023-04-10T14:43:41.197Z,15.00
2023-04-10T14:48:46.283Z,15.40
2023-04-10T14:53:49.185Z,14.80
2023-04-10T14:58:51.970Z,13.20
2023-04-10T15:03:56.336Z,13.60
2023-04-10T15:09:00.279Z,12.80
2023-04-10T15:14:04.442Z,13.20
2023-04-10T15:19:08.581Z,12.00
2023-04-10T15:24:11.341Z,12.80
2023-04-10T15:29:14.174Z,13.80
2023-04-10T15:34:19.024Z,13.80
2023-04-10T15:39:21.885Z,12.00
2023-04-10T15:44:25.022Z,11.80
2023-04-10T15:49:37.201Z,11.20
2023-04-10T15:54:40.891Z,11.20
2023-04-10T15:59:43.815Z,11.00
2023-04-10T16:04:48.165Z,10.80
2023-04-10T16:09:52.353Z,11.60
2023-04-10T16:14:55.214Z,10.80
2023-04-10T16:19:59.854Z,12.40
2023-04-10T16:30:11.840Z,10.00
2023-04-10T16:35:17.693Z,10.20
2023-04-10T16:40:20.733Z,9.60
2023-04-10T16:45:23.510Z,10.00
2023-04-10T16:50:27.651Z,11.20
2023-04-10T16:55:30.398Z,10.00
2023-04-10T17:00:33.203Z,10.80
2023-04-10T17:05:37.344Z,11.00
2023-04-10T17:10:40.138Z,8.80
2023-04-10T17:15:43.029Z,10.80
2023-04-10T17:20:48.298Z,10.20
2023-04-10T17:25:51.354Z,10.20
2023-04-10T17:30:54.208Z,10.00
2023-04-10T17:35:58.334Z,9.60
2023-04-10T17:41:01.098Z,10.00
2023-04-10T17:46:03.876Z,10.00
2023-04-10T17:51:08.529Z,9.60
2023-04-10T17:56:18.296Z,9.60
2023-04-10T18:01:24.528Z,9.00
2023-04-10T18:06:28.709Z,9.80
2023-04-10T18:11:31.504Z,8.20
2023-04-10T18:16:34.318Z,8.80
2023-04-10T18:21:38.624Z,8.60
2023-04-10T18:26:41.485Z,9.20
2023-04-10T18:31:44.279Z,7.80
2023-04-10T18:36:48.437Z,9.00
2023-04-10T18:41:51.332Z,8.20
2023-04-10T18:47:03.332Z,8.80
2023-04-10T18:52:08.373Z,9.00
2023-04-10T18:57:11.568Z,9.20
2023-04-10T19:02:14.589Z,8.20
2023-04-10T19:07:18.957Z,8.00
2023-04-10T19:12:21.823Z,8.00
2023-04-10T19:17:24.929Z,9.40
2023-04-10T19:22:29.178Z,8.60
2023-04-10T19:27:31.939Z,7.80
2023-04-10T19:32:34.721Z,8.80
2023-04-10T19:37:39.116Z,7.80
2023-04-10T19:42:41.891Z,7.20
2023-04-10T19:47:44.762Z,8.20
2023-04-10T19:52:49.112Z,8.80
2023-04-10T19:57:51.853Z,7.80
2023-04-10T20:02:54.913Z,7.60
2023-04-10T20:07:59.435Z,8.00
2023-04-10T20:13:02.278Z,7.80
2023-04-10T20:18:05.185Z,5.20
2023-04-10T20:23:09.569Z,7.40
2023-04-10T20:28:12.424Z,8.80
2023-04-10T20:33:15.457Z,8.40
2023-04-10T20:38:20.300Z,6.60
2023-04-10T20:43:23.079Z,7.80
2023-04-10T20:48:25.983Z,6.40
2023-04-10T20:53:30.314Z,7.80
2023-04-10T20:58:33.804Z,9.20
2023-04-10T21:03:36.690Z,7.80
2023-04-10T21:08:41.005Z,6.60
2023-04-10T21:13:43.794Z,7.20
2023-04-10T21:18:47.421Z,7.00
2023-04-10T21:23:51.599Z,6.00
2023-04-10T21:28:54.520Z,7.60
2023-04-10T21:33:57.407Z,6.00
2023-04-10T21:39:01.542Z,6.40
2023-04-10T21:44:04.301Z,6.60
2023-04-10T21:49:07.132Z,6.00
2023-04-10T21:54:11.419Z,6.00
2023-04-10T21:59:14.179Z,5.60
2023-04-10T22:04:17.153Z,5.40
2023-04-10T22:09:21.390Z,5.00
2023-04-10T22:14:25.513Z,6.00
2023-04-10T22:19:28.367Z,6.00
2023-04-10T22:24:35.200Z,6.00
2023-04-10T22:29:38.169Z,5.60
2023-04-10T22:34:41.069Z,6.00
2023-04-10T22:39:45.304Z,6.00
2023-04-10T22:44:48.068Z,4.20
2023-04-10T22:49:50.975Z,5.20
2023-04-10T22:54:55.143Z,5.40
2023-04-10T23:00:00.404Z,5.60
2023-04-10T23:05:03.512Z,5.00
2023-04-10T23:10:09.408Z,6.00
2023-04-10T23:15:12.405Z,5.00
2023-04-10T23:20:15.259Z,5.20
2023-04-10T23:25:19.463Z,6.00
2023-04-10T23:30:22.278Z,6.00
2023-04-10T23:35:25.109Z,6.00
2023-04-10T23:40:29.332Z,4.40
2023-04-10T23:45:32.116Z,5.00
2023-04-10T23:50:34.883Z,5.00
2023-04-10T23:55:39.724Z,5.40
